Time;durP1;ratioP1;P1;durP2;ratioP2;P2;SDS_P1;SDS_P2;PMS_P1;PMS_P2;Temp;Humidity;BMP_temperature;BMP_pressure;BME280_temperature;BME280_humidity;BME280_pressure;Samples;Min_cycle;Max_cycle;Signal;HPM_P1;HPM_P2
2022/11/30 00:02:13;;;;;;;13.38;6.72;;;;;;;-7.61;71.76;102063.53;4999900;28;20044;-71
2022/11/30 00:04:38;;;;;;;19.13;9.77;;;;;;;-7.74;71.73;102062.13;5006402;28;20127;-75
2022/11/30 00:07:02;;;;;;;19.45;8.80;;;;;;;-7.78;71.94;102063.72;5008281;28;20495;-73
2022/11/30 00:09:27;;;;;;;20.25;8.68;;;;;;;-7.79;71.89;102064.56;5033292;28;20511;-77
2022/11/30 00:11:51;;;;;;;16.10;7.30;;;;;;;-7.68;71.66;102064.09;4999201;28;20028;-72
2022/11/30 00:14:16;;;;;;;11.20;5.95;;;;;;;-7.61;71.66;102066.13;5021454;28;20099;-72
2022/11/30 00:16:41;;;;;;;21.75;9.77;;;;;;;-7.68;71.54;102066.69;5000127;28;20060;-72
2022/11/30 00:19:05;;;;;;;17.90;10.85;;;;;;;-7.80;71.69;102065.38;5038473;28;20518;-75
2022/11/30 00:21:30;;;;;;;15.82;8.90;;;;;;;-7.88;71.91;102068.44;5011384;28;20051;-73
2022/11/30 00:23:55;;;;;;;25.55;10.25;;;;;;;-7.97;72.15;102068.94;5007826;28;20522;-71
2022/11/30 00:26:21;;;;;;;15.18;8.95;;;;;;;-7.97;72.49;102070.66;5006872;28;20033;-73
2022/11/30 00:28:46;;;;;;;13.93;7.07;;;;;;;-7.84;72.97;102072.94;5008975;28;20101;-78
2022/11/30 00:31:13;;;;;;;19.30;9.90;;;;;;;-7.83;73.11;102072.13;5018318;28;20068;-76
2022/11/30 00:33:39;;;;;;;22.13;11.93;;;;;;;-7.93;72.61;102060.50;5018907;28;20446;-69
2022/11/30 00:36:10;;;;;;;17.33;9.93;;;;;;;-7.96;72.84;102052.59;5015798;28;20033;-72
2022/11/30 00:38:34;;;;;;;24.95;10.38;;;;;;;-7.95;72.93;102056.97;5010166;28;20129;-72
2022/11/30 00:41:00;;;;;;;18.60;9.13;;;;;;;-7.85;73.24;102053.03;5037248;28;20127;-70
2022/11/30 00:43:25;;;;;;;12.45;6.47;;;;;;;-7.79;73.42;102051.63;5022156;28;20643;-72
2022/11/30 00:45:49;;;;;;;21.58;10.75;;;;;;;-7.85;73.84;102045.28;4997062;28;20395;-76
2022/11/30 00:48:14;;;;;;;12.95;7.80;;;;;;;-7.84;73.46;102058.28;5037840;28;20063;-69
2022/11/30 00:50:39;;;;;;;17.45;9.13;;;;;;;-7.88;73.31;102048.63;5016920;28;20075;-66
2022/11/30 00:53:04;;;;;;;16.15;8.77;;;;;;;-7.90;73.37;102036.47;5020904;28;20410;-68
2022/11/30 00:55:30;;;;;;;30.15;10.80;;;;;;;-7.87;73.29;102052.97;5015509;28;20057;-66
2022/11/30 00:57:55;;;;;;;23.80;11.10;;;;;;;-7.90;73.80;102039.91;5016577;28;20165;-69
2022/11/30 01:00:19;;;;;;;22.95;10.55;;;;;;;-7.89;73.89;102039.06;5022791;28;20064;-67
2022/11/30 01:02:44;;;;;;;18.42;10.25;;;;;;;-7.88;73.66;102038.25;5034062;28;20395;-67
2022/11/30 01:05:10;;;;;;;22.88;10.10;;;;;;;-7.84;73.66;102044.47;5020374;28;20765;-69
2022/11/30 01:07:34;;;;;;;19.52;10.02;;;;;;;-7.83;73.89;102041.94;5033249;28;20098;-71
2022/11/30 01:09:59;;;;;;;11.57;6.72;;;;;;;-7.74;73.64;102044.91;5009266;28;20045;-69
2022/11/30 01:12:24;;;;;;;12.73;6.30;;;;;;;-7.66;73.93;102036.53;5012719;28;20868;-68
2022/11/30 01:14:48;;;;;;;18.00;9.23;;;;;;;-7.62;73.66;102035.84;5017487;28;20099;-69
2022/11/30 01:17:13;;;;;;;15.63;9.52;;;;;;;-7.68;73.41;102036.50;4982791;28;20099;-70
2022/11/30 01:19:37;;;;;;;22.33;8.35;;;;;;;-7.69;73.39;102037.31;5001828;28;20098;-68
2022/11/30 01:22:02;;;;;;;17.55;9.00;;;;;;;-7.80;73.13;102039.47;5027919;28;20072;-68
2022/11/30 01:24:27;;;;;;;14.48;6.10;;;;;;;-7.65;73.39;102039.19;5014460;28;20041;-68
2022/11/30 01:26:51;;;;;;;20.75;10.23;;;;;;;-7.67;72.13;102034.81;5031494;28;20108;-68
2022/11/30 01:29:16;;;;;;;19.20;8.88;;;;;;;-7.73;72.70;102035.44;5005103;28;20032;-71
2022/11/30 01:31:41;;;;;;;17.45;7.20;;;;;;;-7.71;72.73;102039.84;5002483;28;20040;-69
2022/11/30 01:34:05;;;;;;;16.77;9.07;;;;;;;-7.73;72.61;102044.06;5018078;28;20056;-70
2022/11/30 01:36:31;;;;;;;20.13;9.88;;;;;;;-7.83;72.65;102041.94;5001526;28;20044;-71
2022/11/30 01:38:56;;;;;;;16.42;8.88;;;;;;;-7.90;72.62;102042.47;5033761;28;20041;-68
2022/11/30 01:41:27;;;;;;;15.90;7.72;;;;;;;-7.85;72.87;102030.63;5021462;28;20136;-70
2022/11/30 01:43:54;;;;;;;20.73;9.60;;;;;;;-7.91;72.82;102038.16;5022664;28;20068;-66
2022/11/30 01:46:35;;;;;;;22.30;10.70;;;;;;;-7.84;72.75;102039.28;5024468;28;20491;-67
2022/11/30 01:49:08;;;;;;;17.67;6.13;;;;;;;-7.76;73.02;102036.19;5026977;28;20040;-69
2022/11/30 01:51:45;;;;;;;11.50;6.90;;;;;;;-7.76;72.88;102033.59;5015214;28;20052;-66
2022/11/30 01:54:11;;;;;;;18.90;9.57;;;;;;;-7.86;72.26;102034.03;5015979;28;20048;-66
2022/11/30 01:56:40;;;;;;;20.55;9.55;;;;;;;-7.94;72.11;102027.66;4994773;28;20063;-73
2022/11/30 01:59:05;;;;;;;9.57;6.30;;;;;;;-7.98;72.80;102028.34;5014371;28;20114;-72
2022/11/30 02:01:30;;;;;;;18.35;8.85;;;;;;;-7.94;72.33;102025.09;4997162;28;20041;-71
2022/11/30 02:04:00;;;;;;;20.13;8.38;;;;;;;-7.92;72.76;102022.56;5021869;28;20033;-67
2022/11/30 02:06:25;;;;;;;21.33;9.50;;;;;;;-8.06;72.87;102019.41;5001796;28;20037;-68
2022/11/30 02:08:52;;;;;;;16.83;9.30;;;;;;;-8.03;72.31;102034.19;4998059;28;20033;-68
2022/11/30 02:11:17;;;;;;;17.27;9.75;;;;;;;-8.04;73.28;102032.41;4998091;28;20059;-69
2022/11/30 02:13:58;;;;;;;17.00;8.50;;;;;;;-8.03;72.97;102014.34;5015742;28;20041;-68
2022/11/30 02:16:32;;;;;;;21.15;10.10;;;;;;;-8.02;73.17;102016.13;5020035;28;20494;-73
2022/11/30 02:19:21;;;;;;;18.63;10.50;;;;;;;-7.99;73.55;102024.00;5026857;28;20044;-75
2022/11/30 02:22:03;;;;;;;14.07;7.53;;;;;;;-7.72;73.24;102014.78;5019484;28;20087;-71
2022/11/30 02:24:28;;;;;;;16.73;8.77;;;;;;;-7.82;73.00;102017.81;4995382;28;20399;-71
2022/11/30 02:27:04;;;;;;;20.95;9.88;;;;;;;-7.94;73.22;102013.84;5002117;28;20467;-72
2022/11/30 02:29:32;;;;;;;19.92;10.10;;;;;;;-7.78;73.03;102006.75;4996113;28;20033;-74
2022/11/30 02:32:08;;;;;;;11.25;6.35;;;;;;;-7.77;72.97;102012.81;4994618;28;20475;-78
2022/11/30 02:34:36;;;;;;;19.45;9.50;;;;;;;-7.87;72.75;102016.72;5018548;28;20049;-73
2022/11/30 02:37:02;;;;;;;18.58;10.93;;;;;;;-7.86;72.83;102017.63;5028152;28;20132;-73
2022/11/30 02:39:27;;;;;;;19.90;10.70;;;;;;;-7.94;72.67;102012.13;5026036;28;20033;-73
2022/11/30 02:41:51;;;;;;;20.90;10.73;;;;;;;-7.87;72.50;102011.56;5014030;28;20129;-70
2022/11/30 02:44:16;;;;;;;16.75;9.18;;;;;;;-7.95;72.56;102020.72;4995581;28;20096;-69
2022/11/30 02:47:05;;;;;;;16.95;9.15;;;;;;;-7.98;73.02;102010.22;4987780;28;20152;-75
2022/11/30 02:49:38;;;;;;;20.20;9.68;;;;;;;-7.93;72.77;102008.72;5042084;28;20131;-67
2022/11/30 02:52:05;;;;;;;17.80;6.00;;;;;;;-7.92;73.15;102002.75;4995646;28;20108;-73
2022/11/30 02:54:29;;;;;;;9.25;5.68;;;;;;;-7.95;72.81;102005.19;5014257;28;20128;-72
2022/11/30 02:56:54;;;;;;;15.07;7.72;;;;;;;-7.82;72.83;102010.06;5013351;28;20102;-73
2022/11/30 02:59:19;;;;;;;23.50;10.55;;;;;;;-7.95;72.75;102002.59;5010000;28;20132;-73
2022/11/30 03:01:44;;;;;;;14.07;6.47;;;;;;;-7.96;73.04;102010.31;5013630;28;20029;-66
2022/11/30 03:04:08;;;;;;;20.50;10.25;;;;;;;-7.94;72.56;102009.56;5025702;28;20095;-66
2022/11/30 03:06:33;;;;;;;15.35;9.57;;;;;;;-7.97;72.52;101999.06;5013975;28;20376;-65
2022/11/30 03:08:58;;;;;;;23.75;11.75;;;;;;;-8.04;72.43;102048.81;5015192;28;20037;-65
2022/11/30 03:11:22;;;;;;;16.80;9.20;;;;;;;-8.14;72.39;102011.31;5014548;28;20067;-65
2022/11/30 03:13:47;;;;;;;17.65;9.35;;;;;;;-8.14;73.01;102008.75;5016888;28;20044;-66
2022/11/30 03:16:12;;;;;;;19.63;11.07;;;;;;;-8.20;73.29;102002.41;5017794;28;20482;-63
2022/11/30 03:18:38;;;;;;;26.95;9.38;;;;;;;-8.16;73.08;102001.72;5016893;28;20410;-65
2022/11/30 03:21:11;;;;;;;15.23;8.25;;;;;;;-8.09;73.59;102007.22;5034466;28;20119;-64
2022/11/30 03:23:36;;;;;;;20.55;10.73;;;;;;;-8.19;73.30;101999.00;5003793;28;20092;-65
2022/11/30 03:26:01;;;;;;;24.30;10.18;;;;;;;-8.21;72.95;102005.81;5010298;28;20044;-64
2022/11/30 03:28:25;;;;;;;23.67;11.63;;;;;;;-8.23;73.68;102004.84;4988957;28;20124;-64
2022/11/30 03:30:50;;;;;;;22.48;10.85;;;;;;;-8.24;73.65;102006.56;5000411;28;20044;-67
2022/11/30 03:33:15;;;;;;;21.88;10.98;;;;;;;-8.21;73.76;102009.28;5008401;28;20106;-68
2022/11/30 03:35:40;;;;;;;23.02;10.93;;;;;;;-8.18;74.06;102004.25;5026972;28;20040;-69
2022/11/30 03:38:05;;;;;;;18.40;10.32;;;;;;;-8.14;73.92;102010.44;5013579;28;20392;-69
2022/11/30 03:40:29;;;;;;;20.58;10.52;;;;;;;-8.03;73.78;102011.78;4999531;28;20404;-69
2022/11/30 03:42:54;;;;;;;11.27;6.07;;;;;;;-7.95;73.55;102006.91;4999444;28;20049;-68
2022/11/30 03:45:19;;;;;;;28.70;11.00;;;;;;;-8.05;73.88;102005.63;5034920;28;20120;-68
2022/11/30 03:47:43;;;;;;;19.75;10.38;;;;;;;-8.10;74.01;102014.91;5023772;28;20052;-67
2022/11/30 03:50:08;;;;;;;23.83;11.30;;;;;;;-8.11;73.61;102010.53;5022384;28;20095;-68
2022/11/30 03:52:33;;;;;;;19.58;10.25;;;;;;;-8.15;74.04;102008.66;5018141;28;20449;-66
2022/11/30 03:54:57;;;;;;;7.75;4.60;;;;;;;-7.95;73.86;102005.19;5016665;28;20044;-67
2022/11/30 03:57:22;;;;;;;17.48;8.45;;;;;;;-7.95;73.66;102006.91;5017255;28;20468;-64
2022/11/30 03:59:47;;;;;;;25.02;11.27;;;;;;;-8.07;73.61;102004.69;5010440;28;20043;-67
2022/11/30 04:02:11;;;;;;;17.88;9.38;;;;;;;-7.99;73.24;102015.34;5020101;28;20044;-67
2022/11/30 04:04:36;;;;;;;12.63;6.68;;;;;;;-8.06;73.35;102021.97;4993014;28;20144;-72
2022/11/30 04:07:00;;;;;;;24.90;10.80;;;;;;;-8.12;73.31;102013.94;5025289;28;20060;-73
2022/11/30 04:09:25;;;;;;;28.80;13.52;;;;;;;-8.18;73.59;102012.00;5037924;28;20047;-74
2022/11/30 04:11:50;;;;;;;24.20;11.98;;;;;;;-8.09;74.10;102009.78;5038001;28;20150;-73
2022/11/30 04:14:14;;;;;;;18.40;10.52;;;;;;;-7.94;73.58;102012.13;5019056;28;20048;-74
2022/11/30 04:16:39;;;;;;;22.80;10.38;;;;;;;-8.08;73.34;102013.28;5018094;28;20037;-72
2022/11/30 04:19:03;;;;;;;25.90;11.98;;;;;;;-8.12;73.46;102013.94;5031898;28;20860;-73
2022/11/30 04:21:28;;;;;;;21.83;12.00;;;;;;;-8.18;73.60;102012.00;5017983;28;20045;-74
2022/11/30 04:23:53;;;;;;;22.55;10.52;;;;;;;-8.26;73.76;102022.84;5028918;28;20123;-73
2022/11/30 04:26:17;;;;;;;22.95;11.68;;;;;;;-8.33;73.41;102028.59;5023392;28;20044;-73
2022/11/30 04:28:42;;;;;;;15.63;7.93;;;;;;;-8.31;74.14;102012.31;5028689;28;20057;-74
2022/11/30 04:31:07;;;;;;;23.88;10.93;;;;;;;-8.28;73.52;102012.44;5019192;28;20522;-74
2022/11/30 04:33:33;;;;;;;32.42;11.15;;;;;;;-8.31;74.12;102011.44;5031484;28;20036;-76
2022/11/30 04:36:01;;;;;;;20.40;10.25;;;;;;;-8.31;74.13;102014.88;5032735;28;20048;-73
2022/11/30 04:38:27;;;;;;;18.30;10.90;;;;;;;-8.32;74.51;102007.97;5016585;28;20041;-73
2022/11/30 04:40:53;;;;;;;22.17;11.00;;;;;;;-8.34;74.41;102008.72;5009340;28;20047;-73
2022/11/30 04:43:18;;;;;;;21.63;11.43;;;;;;;-8.30;74.67;102018.38;5016140;28;20051;-73
2022/11/30 04:45:46;;;;;;;23.10;11.80;;;;;;;-8.28;74.25;102020.19;4996064;28;20055;-74
2022/11/30 04:48:11;;;;;;;21.70;11.13;;;;;;;-8.23;74.10;102017.78;5011330;28;20067;-75
2022/11/30 04:50:36;;;;;;;19.35;10.98;;;;;;;-8.25;74.22;102016.88;5013884;28;20064;-73
2022/11/30 04:53:01;;;;;;;22.40;11.75;;;;;;;-8.22;74.02;102020.44;5021258;28;20549;-74
2022/11/30 04:55:26;;;;;;;21.88;11.00;;;;;;;-8.22;74.45;102022.16;5038570;28;20052;-73
2022/11/30 04:57:51;;;;;;;20.73;10.23;;;;;;;-8.21;74.52;102018.75;5014875;28;20044;-73
2022/11/30 05:00:16;;;;;;;15.02;8.63;;;;;;;-7.98;73.88;102036.13;5022208;28;20103;-73
2022/11/30 05:02:42;;;;;;;22.33;8.70;;;;;;;-7.93;73.91;102037.22;5032722;28;20505;-74
2022/11/30 05:05:07;;;;;;;13.45;6.35;;;;;;;-7.96;73.46;102031.00;5018981;28;20462;-74
2022/11/30 05:07:31;;;;;;;26.83;12.65;;;;;;;-8.13;73.45;102026.03;5033244;28;20203;-75
2022/11/30 05:09:56;;;;;;;28.58;11.43;;;;;;;-8.18;73.71;102031.81;5019078;28;20148;-74
2022/11/30 05:12:20;;;;;;;20.38;11.15;;;;;;;-8.27;73.68;102032.31;5000341;28;20131;-74
2022/11/30 05:14:45;;;;;;;16.75;9.52;;;;;;;-8.14;73.47;102023.38;5007666;28;20043;-75
2022/11/30 05:17:09;;;;;;;21.50;10.23;;;;;;;-8.10;73.22;102020.97;5020211;28;20043;-73
2022/11/30 05:19:34;;;;;;;13.27;6.35;;;;;;;-8.08;73.19;102021.91;5020076;28;20376;-73
2022/11/30 05:21:59;;;;;;;25.80;11.75;;;;;;;-8.27;73.25;102021.09;5019638;28;20091;-74
2022/11/30 05:24:23;;;;;;;20.77;11.15;;;;;;;-8.37;73.26;102022.44;5019755;28;20091;-73
2022/11/30 05:26:48;;;;;;;7.05;4.93;;;;;;;-8.20;73.84;102024.00;5011174;28;20541;-73
2022/11/30 05:29:12;;;;;;;16.90;9.80;;;;;;;-8.26;73.85;102035.78;5037184;28;20063;-73
2022/11/30 05:31:37;;;;;;;14.13;8.35;;;;;;;-8.27;73.81;102023.69;5020880;28;20120;-75
2022/11/30 05:34:02;;;;;;;23.75;10.68;;;;;;;-8.36;73.95;102023.31;5012741;28;20047;-73
2022/11/30 05:36:27;;;;;;;23.58;10.90;;;;;;;-8.34;74.26;102029.41;5036117;28;20035;-71
2022/11/30 05:38:52;;;;;;;23.42;12.15;;;;;;;-8.38;73.84;102031.00;5025090;28;20147;-71
2022/11/30 05:41:16;;;;;;;22.52;11.13;;;;;;;-8.35;74.48;102033.72;4997813;28;20036;-71
2022/11/30 05:43:41;;;;;;;29.98;12.98;;;;;;;-8.31;74.85;102039.91;5023717;28;20124;-72
2022/11/30 05:46:08;;;;;;;24.88;12.45;;;;;;;-8.24;75.00;102037.59;5022507;28;20070;-72
2022/11/30 05:48:33;;;;;;;20.40;10.95;;;;;;;-8.19;74.86;102049.03;5021237;28;20044;-72
2022/11/30 05:51:08;;;;;;;24.05;11.55;;;;;;;-8.10;74.83;102043.38;5016988;28;20109;-71
2022/11/30 05:53:33;;;;;;;20.02;10.63;;;;;;;-7.98;74.64;102045.59;4998882;28;20459;-71
2022/11/30 05:56:07;;;;;;;23.52;10.77;;;;;;;-7.97;74.23;102048.25;5000923;28;20495;-72
2022/11/30 05:58:31;;;;;;;24.83;12.17;;;;;;;-8.08;74.16;102044.31;5034538;28;20143;-72
2022/11/30 06:00:56;;;;;;;20.73;10.90;;;;;;;-8.08;74.43;102041.72;4997770;28;20132;-73
2022/11/30 06:03:21;;;;;;;28.17;13.15;;;;;;;-8.01;74.35;102048.06;5009059;28;20048;-73
2022/11/30 06:05:50;;;;;;;28.98;13.48;;;;;;;-8.00;74.38;102071.41;4998906;28;20032;-74
2022/11/30 06:08:14;;;;;;;25.20;12.57;;;;;;;-7.94;74.56;102060.44;5026895;28;20128;-75
2022/11/30 06:10:39;;;;;;;20.73;9.70;;;;;;;-7.74;74.16;102057.84;5020141;28;20128;-75
2022/11/30 06:13:08;;;;;;;25.40;11.60;;;;;;;-7.82;74.22;102069.59;5024698;28;20110;-74
2022/11/30 06:15:33;;;;;;;19.48;9.52;;;;;;;-7.77;74.15;102049.94;5020832;28;20072;-74
2022/11/30 06:17:58;;;;;;;23.35;12.00;;;;;;;-7.84;74.21;102060.88;5008195;28;20083;-74
2022/11/30 06:20:22;;;;;;;29.70;11.77;;;;;;;-7.82;74.16;102055.78;5035481;28;20045;-74
2022/11/30 06:22:47;;;;;;;29.42;12.65;;;;;;;-7.76;74.21;102056.00;5018104;28;20055;-74
2022/11/30 06:25:12;;;;;;;27.23;9.35;;;;;;;-7.73;74.07;102063.91;5027357;28;20122;-74
2022/11/30 06:27:37;;;;;;;20.52;10.35;;;;;;;-7.63;73.89;102065.16;5018654;28;20036;-73
2022/11/30 06:30:02;;;;;;;15.10;7.65;;;;;;;-7.68;73.75;102057.22;5028192;28;20041;-74
2022/11/30 06:32:28;;;;;;;23.05;10.85;;;;;;;-7.77;73.58;102060.28;5030716;28;20534;-73
2022/11/30 06:34:53;;;;;;;28.80;12.07;;;;;;;-7.58;73.41;102068.84;5016221;28;20556;-74
2022/11/30 06:37:17;;;;;;;13.05;7.15;;;;;;;-7.56;73.22;102077.56;5016560;28;20359;-75
2022/11/30 06:39:42;;;;;;;23.67;10.93;;;;;;;-7.60;73.19;102067.88;5030924;28;20402;-75
2022/11/30 06:42:07;;;;;;;11.88;7.05;;;;;;;-7.47;73.56;102064.97;4999595;28;20044;-75
2022/11/30 06:44:31;;;;;;;33.30;14.35;;;;;;;-7.55;73.05;102062.06;5014470;28;20112;-75
2022/11/30 06:46:56;;;;;;;28.85;12.85;;;;;;;-7.58;73.59;102061.94;5016593;28;20389;-74
2022/11/30 06:49:20;;;;;;;28.83;12.35;;;;;;;-7.49;73.45;102057.13;5025076;28;20126;-76
2022/11/30 06:51:45;;;;;;;21.35;10.05;;;;;;;-7.39;73.81;102061.84;5018213;28;20037;-75
2022/11/30 06:54:10;;;;;;;22.80;12.02;;;;;;;-7.29;73.15;102067.38;5011623;28;20048;-75
2022/11/30 06:56:35;;;;;;;15.10;6.97;;;;;;;-7.32;73.37;102065.56;4997716;28;20057;-72
2022/11/30 06:58:59;;;;;;;11.60;7.05;;;;;;;-7.11;72.26;102066.38;5015815;28;20060;-74
2022/11/30 07:01:24;;;;;;;28.63;13.75;;;;;;;-7.25;71.28;102077.06;5015083;28;20045;-74
2022/11/30 07:03:49;;;;;;;16.27;8.70;;;;;;;-7.18;71.56;102061.81;5030982;28;20054;-74
2022/11/30 07:06:13;;;;;;;14.68;8.23;;;;;;;-7.21;72.06;102072.03;5019163;28;20056;-74
2022/11/30 07:08:39;;;;;;;24.33;11.48;;;;;;;-7.19;71.76;102075.59;5033174;28;20041;-73
2022/11/30 07:11:04;;;;;;;28.63;13.60;;;;;;;-7.29;72.16;102069.97;5019830;28;20103;-74
2022/11/30 07:13:29;;;;;;;21.55;12.00;;;;;;;-7.20;72.24;102067.75;4993085;28;20041;-66
2022/11/30 07:15:53;;;;;;;21.38;10.05;;;;;;;-7.21;72.03;102064.25;5003869;28;20048;-66
2022/11/30 07:18:18;;;;;;;5.45;4.05;;;;;;;-6.93;72.06;102080.91;5003858;28;20048;-67
2022/11/30 07:20:43;;;;;;;32.42;13.60;;;;;;;-7.06;71.95;102070.06;5037240;28;20036;-66
2022/11/30 07:26:08;;;;;;;28.55;14.05;;;;;;;-6.84;71.35;102081.25;5036672;28;20090;-67
2022/11/30 07:28:41;;;;;;;36.08;14.32;;;;;;;-6.86;71.86;102080.28;5000631;28;20379;-67
2022/11/30 07:31:13;;;;;;;21.20;11.35;;;;;;;-6.69;71.96;102081.81;5016791;28;20044;-65
2022/11/30 07:33:38;;;;;;;26.95;14.85;;;;;;;-6.55;72.31;102082.34;5028168;28;20053;-65
2022/11/30 07:36:03;;;;;;;25.35;14.02;;;;;;;-6.38;72.59;102076.91;5019191;28;20048;-66
2022/11/30 07:38:27;;;;;;;26.65;12.27;;;;;;;-6.15;71.68;102082.03;5030396;28;20044;-67
2022/11/30 07:40:52;;;;;;;38.90;18.38;;;;;;;-6.07;71.22;102090.97;5017754;28;20132;-67
2022/11/30 07:43:16;;;;;;;33.33;15.00;;;;;;;-6.00;71.72;102077.38;5032065;28;20040;-65
2022/11/30 07:45:41;;;;;;;37.63;16.85;;;;;;;-5.79;72.04;102088.47;5016533;28;20049;-65
2022/11/30 07:48:05;;;;;;;33.08;16.42;;;;;;;-5.30;72.18;102085.75;5007673;28;20076;-66
2022/11/30 07:50:30;;;;;;;38.08;19.48;;;;;;;-4.07;72.33;102075.50;5018184;28;20063;-67
2022/11/30 07:52:55;;;;;;;44.22;16.45;;;;;;;-2.53;70.40;102077.41;5019529;28;20114;-66
2022/11/30 07:55:22;;;;;;;27.48;13.77;;;;;;;-0.97;65.71;102081.03;5033271;28;20084;-68
2022/11/30 07:57:46;;;;;;;25.05;13.95;;;;;;;0.40;59.33;102067.78;4991543;28;20080;-68
2022/11/30 08:00:12;;;;;;;31.38;14.93;;;;;;;1.58;55.81;102066.81;4977426;28;20064;-68
2022/11/30 08:02:37;;;;;;;30.45;13.95;;;;;;;2.39;53.35;102065.22;4997412;28;20415;-69
2022/11/30 08:05:01;;;;;;;26.08;15.45;;;;;;;2.62;52.96;102062.59;4998258;28;20064;-69
2022/11/30 08:07:26;;;;;;;25.42;15.07;;;;;;;2.63;51.85;102059.97;4998143;28;20163;-69
2022/11/30 08:09:51;;;;;;;26.02;13.90;;;;;;;2.52;51.83;102062.59;5008204;28;20086;-69
2022/11/30 08:12:15;;;;;;;26.95;14.95;;;;;;;2.50;51.97;102058.19;4997614;28;20045;-67
2022/11/30 08:14:40;;;;;;;28.15;15.27;;;;;;;2.43;52.37;102062.59;4986759;28;20112;-69
2022/11/30 08:17:05;;;;;;;33.78;16.02;;;;;;;1.83;54.87;102060.72;4986874;28;20060;-66
2022/11/30 08:19:29;;;;;;;34.17;16.50;;;;;;;1.02;56.07;102073.50;4998750;28;20511;-66
2022/11/30 08:21:54;;;;;;;31.83;15.25;;;;;;;0.91;55.49;102075.19;4981375;28;20424;-66
2022/11/30 08:24:18;;;;;;;32.03;15.98;;;;;;;1.08;54.93;102060.41;4998949;28;20052;-66
2022/11/30 08:26:43;;;;;;;26.63;14.63;;;;;;;1.29;54.43;102064.03;5001742;28;20041;-67
2022/11/30 08:29:10;;;;;;;30.05;13.65;;;;;;;1.71;55.29;102056.31;5015799;28;20041;-66
2022/11/30 08:31:35;;;;;;;24.23;12.52;;;;;;;1.88;55.43;102060.75;4987487;28;20063;-66
2022/11/30 08:34:06;;;;;;;27.88;16.30;;;;;;;1.50;54.23;102063.25;5005499;28;20052;-68
2022/11/30 08:36:31;;;;;;;30.38;15.43;;;;;;;1.16;53.15;102062.19;5003226;28;20423;-67
2022/11/30 08:38:57;;;;;;;27.48;14.13;;;;;;;1.21;52.23;102050.84;4984243;28;20408;-66
2022/11/30 08:41:22;;;;;;;34.20;15.73;;;;;;;1.31;53.33;102059.66;4983035;28;20049;-67
2022/11/30 08:43:48;;;;;;;29.15;16.70;;;;;;;1.33;53.15;102052.66;5001677;28;20064;-67
2022/11/30 08:46:15;;;;;;;26.75;15.32;;;;;;;1.16;52.47;102051.69;5001631;28;20585;-66
2022/11/30 08:48:40;;;;;;;33.03;17.95;;;;;;;0.97;53.10;102053.34;4998139;28;20492;-67
2022/11/30 08:51:08;;;;;;;28.15;15.40;;;;;;;0.80;52.60;102044.47;5000801;28;20381;-67
2022/11/30 08:53:33;;;;;;;30.90;16.77;;;;;;;0.11;53.13;102057.03;5000174;28;20110;-65
2022/11/30 08:56:00;;;;;;;32.38;17.90;;;;;;;-0.39;53.67;102052.13;5011213;28;20080;-67
2022/11/30 08:58:26;;;;;;;30.15;15.23;;;;;;;-0.75;55.24;102051.66;4997850;28;20704;-67
2022/11/30 09:00:51;;;;;;;26.75;16.27;;;;;;;-0.99;56.24;102056.56;5005614;28;20041;-65
2022/11/30 09:03:15;;;;;;;32.05;16.23;;;;;;;-1.10;56.39;102049.44;5005304;28;20064;-67
2022/11/30 09:05:40;;;;;;;33.33;16.58;;;;;;;-0.84;56.66;102043.69;5037968;28;20052;-69
2022/11/30 09:08:04;;;;;;;36.58;17.92;;;;;;;-0.80;56.07;102045.50;5023416;28;20123;-68
2022/11/30 09:10:30;;;;;;;35.92;16.27;;;;;;;-0.53;55.14;102051.06;5019207;28;20044;-68
2022/11/30 09:12:54;;;;;;;34.38;17.00;;;;;;;-0.53;54.33;102047.56;5022153;28;20045;-68
2022/11/30 09:15:19;;;;;;;34.83;17.25;;;;;;;-0.27;54.66;102046.16;5039400;28;20051;-68
2022/11/30 09:17:43;;;;;;;37.50;17.60;;;;;;;0.07;54.65;102041.25;5034549;28;20037;-67
2022/11/30 09:20:09;;;;;;;35.78;17.15;;;;;;;0.58;53.61;102038.19;5004980;28;20791;-68
2022/11/30 09:22:34;;;;;;;31.52;17.55;;;;;;;0.54;52.67;102036.41;4971012;28;20041;-68
2022/11/30 09:24:59;;;;;;;25.52;11.60;;;;;;;0.40;51.79;102040.66;5001899;28;20128;-68
2022/11/30 09:27:29;;;;;;;29.42;14.55;;;;;;;-0.11;52.74;102034.94;5031618;28;20072;-69
2022/11/30 09:29:53;;;;;;;17.52;11.32;;;;;;;-0.39;52.57;102032.91;5016643;28;20036;-67
2022/11/30 09:32:19;;;;;;;24.40;13.77;;;;;;;-1.02;52.55;102038.22;5012025;28;20773;-69
2022/11/30 09:34:43;;;;;;;40.65;17.60;;;;;;;-1.36;54.22;102036.84;5019050;28;20398;-67
2022/11/30 09:37:08;;;;;;;30.80;17.55;;;;;;;-1.44;55.98;102035.81;5027384;28;20036;-68
2022/11/30 09:39:33;;;;;;;26.27;13.60;;;;;;;-1.16;54.86;102045.88;5002584;28;20043;-68
2022/11/30 09:42:13;;;;;;;34.97;15.20;;;;;;;-1.18;55.21;102045.84;5020961;28;20101;-68
2022/11/30 09:45:09;;;;;;;33.65;18.52;;;;;;;-1.32;55.29;102042.13;5026498;28;20121;-69
2022/11/30 09:47:43;;;;;;;29.40;15.80;;;;;;;-1.16;55.78;102044.13;5016747;28;20047;-68
2022/11/30 09:50:23;;;;;;;27.23;12.00;;;;;;;-0.71;55.94;102036.88;5025049;28;20511;-68
2022/11/30 09:52:52;;;;;;;31.13;14.90;;;;;;;-0.69;54.44;102035.16;5018310;28;20091;-69
2022/11/30 09:55:26;;;;;;;30.05;13.77;;;;;;;-0.74;53.98;102025.50;4986279;28;20052;-66
2022/11/30 09:57:55;;;;;;;30.63;15.85;;;;;;;-0.72;53.64;102038.63;5020003;28;20131;-68
2022/11/30 10:00:22;;;;;;;31.48;16.10;;;;;;;-0.60;54.34;102038.78;5033460;28;20094;-67
2022/11/30 10:02:52;;;;;;;28.88;16.13;;;;;;;-0.21;53.59;102040.06;4988068;28;20056;-68
2022/11/30 10:05:22;;;;;;;24.08;12.48;;;;;;;0.30;53.46;102034.47;5009501;28;20043;-67
2022/11/30 10:08:08;;;;;;;31.10;16.50;;;;;;;0.00;51.99;102030.69;5016487;28;20037;-66
2022/11/30 10:10:36;;;;;;;29.33;14.45;;;;;;;-0.28;52.90;102033.91;4997755;28;20100;-67
2022/11/30 10:13:38;;;;;;;23.08;12.77;;;;;;;-0.34;54.53;102035.59;4998098;28;20053;-67
2022/11/30 10:16:42;;;;;;;26.55;13.95;;;;;;;-0.13;53.94;102036.69;5016998;28;20498;-68
2022/11/30 10:19:19;;;;;;;32.60;16.33;;;;;;;-0.39;52.72;102036.41;5018114;28;20040;-67
2022/11/30 10:22:03;;;;;;;34.08;15.60;;;;;;;-1.14;53.97;102041.53;5007896;28;20048;-67
2022/11/30 10:25:07;;;;;;;26.95;12.70;;;;;;;-1.68;55.00;102038.91;5019348;28;20049;-67
2022/11/30 10:27:52;;;;;;;32.72;15.77;;;;;;;-2.52;56.94;102046.97;5003314;28;20116;-75
2022/11/30 10:30:25;;;;;;;30.35;14.52;;;;;;;-2.79;58.07;102042.03;5017684;28;20502;-76
2022/11/30 10:32:53;;;;;;;31.08;13.93;;;;;;;-3.01;58.57;102056.34;4999767;28;20033;-75
2022/11/30 10:35:34;;;;;;;27.45;13.63;;;;;;;-2.93;58.32;102039.13;4999180;28;20132;-74
2022/11/30 10:38:05;;;;;;;28.20;14.15;;;;;;;-3.17;58.74;102044.72;5019819;28;20040;-75
2022/11/30 10:40:53;;;;;;;29.98;16.02;;;;;;;-3.47;58.96;102047.47;5031106;28;20059;-76
2022/11/30 10:43:28;;;;;;;36.55;17.13;;;;;;;-3.69;59.28;102039.97;5020286;28;20055;-75
2022/11/30 10:45:53;;;;;;;30.95;14.02;;;;;;;-3.83;60.49;102038.75;5003362;28;20041;-76
2022/11/30 10:48:30;;;;;;;30.77;15.77;;;;;;;-3.93;60.55;102042.84;5021366;28;20033;-75
2022/11/30 10:50:54;;;;;;;28.13;15.60;;;;;;;-4.07;61.15;102033.81;5040982;28;20510;-75
2022/11/30 10:53:19;;;;;;;24.42;13.05;;;;;;;-4.01;61.32;102039.19;5040597;28;20548;-74
2022/11/30 10:55:54;;;;;;;32.08;15.80;;;;;;;-4.01;61.18;102039.19;5034486;28;20065;-74
2022/11/30 10:58:26;;;;;;;;;;;;;;;-4.04;61.67;102032.16;5031189;28;20112;-72
2022/11/30 11:01:08;;;;;;;32.63;17.23;;;;;;;-4.03;62.12;102031.31;5015874;28;19952;-73
2022/11/30 11:03:33;;;;;;;32.97;11.18;;;;;;;-3.87;61.62;102026.50;5018910;28;20045;-73
2022/11/30 11:06:05;;;;;;;34.88;18.30;;;;;;;-3.84;61.08;102034.41;5018472;28;20049;-73
2022/11/30 11:08:30;;;;;;;20.98;11.25;;;;;;;-3.96;60.98;102034.09;5031666;28;20130;-73
2022/11/30 11:10:55;;;;;;;34.47;16.20;;;;;;;-4.03;61.13;102033.03;5020083;28;20075;-72
2022/11/30 11:13:42;;;;;;;38.38;16.67;;;;;;;-4.06;61.44;102032.94;5009695;28;20041;-73
2022/11/30 11:16:09;;;;;;;45.28;19.95;;;;;;;-4.39;61.96;102027.72;5018449;28;20195;-72